Página principal
METAR-TAF:

METAR-TAF

Aeroportos :

Aeroporto de Newcastle

Newcastle upon Tyne, Inglaterra

latitude: 55-02N, longitude: 001-42W, altura: 81 m

Observação actual do tempo

O boletim foi feito há 44 minutos, às 20:20 UTC
Vento 7 kt de sudeste, variando entre este e sul
Temperatura 3°C
Humidade 75%
Pressão 1020 hPa
Visibilidade 10 km ou mais
sem nuvens abaixo de 1500 metros e sem cumulonimbus

METAR: EGNT 122020Z 14007KT 100V170 CAVOK 03/M01 Q1020

Hora: 21:04 (21:04 UTC)

Previsão

O boletim foi feito há 4 horas e 8 minutos, às 16:56 UTC
Previsão válida de 12 às 18 UTC a 13 às 18 UTC
Vento 8 kt de sudeste
Visibilidade 10 km ou mais
Nuvens dispersasa uma altura de 2500 ft

TAF: EGNT 121656Z 1218/1318 14008KT 9999 SCT025

Observações e previsões do tempo de mais de 4000 aeroportos (mensagens METAR e TAF).

As estações disponíveis são os pontos amarelos e vermelhos sobre o mapa.

Mova o rato sobre o mapa para ver o nome da estação.

Depois clique no ponto para visualizar as observações e previsões meteorológicas.

Para alterar o mapa : clique nos botões verdes com uma cruz preta para aumentar o zoom; no botão verde com uma pitada de zoom; ou nas setas verdes para mapas adjacentes.


METAR-TAF: